sensor_id;sensor_type;location;lat;lon;timestamp;P1;durP1;ratioP1;P2;durP2;ratioP2
63276;SDS011;49403;51.046;13.780;2024-03-02T00:00:08;56.40;;;33.92;;
63276;SDS011;49403;51.046;13.780;2024-03-02T00:00:43;55.13;;;32.42;;
63276;SDS011;49403;51.046;13.780;2024-03-02T00:01:14;54.72;;;33.17;;
63276;SDS011;49403;51.046;13.780;2024-03-02T00:01:44;58.33;;;35.00;;
63276;SDS011;49403;51.046;13.780;2024-03-02T00:02:15;57.85;;;34.25;;
63276;SDS011;49403;51.046;13.780;2024-03-02T00:02:47;54.55;;;33.47;;
63276;SDS011;49403;51.046;13.780;2024-03-02T00:03:19;54.60;;;32.97;;
63276;SDS011;49403;51.046;13.780;2024-03-02T00:03:50;54.38;;;32.80;;
63276;SDS011;49403;51.046;13.780;2024-03-02T00:04:21;59.65;;;34.15;;
63276;SDS011;49403;51.046;13.780;2024-03-02T00:04:52;54.28;;;33.28;;
63276;SDS011;49403;51.046;13.780;2024-03-02T00:05:23;52.97;;;32.53;;
63276;SDS011;49403;51.046;13.780;2024-03-02T00:05:53;58.60;;;33.53;;
63276;SDS011;49403;51.046;13.780;2024-03-02T00:06:24;53.97;;;32.30;;
63276;SDS011;49403;51.046;13.780;2024-03-02T00:06:55;54.53;;;33.28;;
63276;SDS011;49403;51.046;13.780;2024-03-02T00:07:26;51.78;;;32.63;;
63276;SDS011;49403;51.046;13.780;2024-03-02T00:07:57;55.28;;;32.85;;
63276;SDS011;49403;51.046;13.780;2024-03-02T00:08:29;50.50;;;32.67;;
63276;SDS011;49403;51.046;13.780;2024-03-02T00:09:00;58.28;;;32.47;;
63276;SDS011;49403;51.046;13.780;2024-03-02T00:09:31;54.97;;;32.47;;
63276;SDS011;49403;51.046;13.780;2024-03-02T00:10:04;54.90;;;33.22;;
63276;SDS011;49403;51.046;13.780;2024-03-02T00:10:40;53.92;;;32.90;;
63276;SDS011;49403;51.046;13.780;2024-03-02T00:11:11;53.63;;;32.63;;
63276;SDS011;49403;51.046;13.780;2024-03-02T00:11:44;56.33;;;32.38;;
63276;SDS011;49403;51.046;13.780;2024-03-02T00:12:15;52.67;;;32.50;;
63276;SDS011;49403;51.046;13.780;2024-03-02T00:12:47;59.95;;;33.60;;
63276;SDS011;49403;51.046;13.780;2024-03-02T00:13:20;57.60;;;32.65;;
63276;SDS011;49403;51.046;13.780;2024-03-02T00:13:54;56.95;;;32.58;;
63276;SDS011;49403;51.046;13.780;2024-03-02T00:14:25;53.53;;;32.50;;
63276;SDS011;49403;51.046;13.780;2024-03-02T00:14:56;56.30;;;30.90;;
63276;SDS011;49403;51.046;13.780;2024-03-02T00:16:21;51.13;;;31.38;;
63276;SDS011;49403;51.046;13.780;2024-03-02T00:16:54;53.38;;;31.65;;
63276;SDS011;49403;51.046;13.780;2024-03-02T00:17:26;52.30;;;31.70;;
63276;SDS011;49403;51.046;13.780;2024-03-02T00:17:57;56.63;;;32.85;;
63276;SDS011;49403;51.046;13.780;2024-03-02T00:19:07;55.40;;;31.90;;
63276;SDS011;49403;51.046;13.780;2024-03-02T00:19:40;53.83;;;31.52;;
63276;SDS011;49403;51.046;13.780;2024-03-02T00:20:10;58.97;;;33.22;;
63276;SDS011;49403;51.046;13.780;2024-03-02T00:20:48;48.70;;;31.80;;
63276;SDS011;49403;51.046;13.780;2024-03-02T00:21:18;54.40;;;32.53;;
63276;SDS011;49403;51.046;13.780;2024-03-02T00:21:52;51.20;;;32.75;;
63276;SDS011;49403;51.046;13.780;2024-03-02T00:22:23;58.10;;;31.63;;
63276;SDS011;49403;51.046;13.780;2024-03-02T00:23:03;56.45;;;32.22;;
63276;SDS011;49403;51.046;13.780;2024-03-02T00:23:35;56.33;;;32.60;;
63276;SDS011;49403;51.046;13.780;2024-03-02T00:24:17;53.67;;;31.45;;
63276;SDS011;49403;51.046;13.780;2024-03-02T00:24:57;52.67;;;31.25;;
63276;SDS011;49403;51.046;13.780;2024-03-02T00:25:39;57.20;;;32.70;;
63276;SDS011;49403;51.046;13.780;2024-03-02T00:26:11;56.97;;;31.60;;
63276;SDS011;49403;51.046;13.780;2024-03-02T00:26:44;53.50;;;32.92;;
63276;SDS011;49403;51.046;13.780;2024-03-02T00:27:15;52.70;;;31.65;;
63276;SDS011;49403;51.046;13.780;2024-03-02T00:27:49;55.55;;;31.85;;
63276;SDS011;49403;51.046;13.780;2024-03-02T00:28:21;55.75;;;32.55;;
63276;SDS011;49403;51.046;13.780;2024-03-02T00:29:05;49.78;;;31.38;;
63276;SDS011;49403;51.046;13.780;2024-03-02T00:29:36;54.58;;;31.20;;
63276;SDS011;49403;51.046;13.780;2024-03-02T00:31:27;51.60;;;30.35;;
63276;SDS011;49403;51.046;13.780;2024-03-02T00:31:58;50.13;;;30.85;;
63276;SDS011;49403;51.046;13.780;2024-03-02T00:32:31;53.05;;;31.70;;
63276;SDS011;49403;51.046;13.780;2024-03-02T00:33:02;58.53;;;32.92;;
63276;SDS011;49403;51.046;13.780;2024-03-02T00:34:13;53.78;;;31.30;;
63276;SDS011;49403;51.046;13.780;2024-03-02T00:34:46;52.70;;;30.63;;
63276;SDS011;49403;51.046;13.780;2024-03-02T00:35:17;52.78;;;31.88;;
63276;SDS011;49403;51.046;13.780;2024-03-02T00:35:48;54.67;;;31.55;;
63276;SDS011;49403;51.046;13.780;2024-03-02T00:36:24;50.97;;;31.42;;
63276;SDS011;49403;51.046;13.780;2024-03-02T00:36:57;51.83;;;31.08;;
63276;SDS011;49403;51.046;13.780;2024-03-02T00:37:29;50.95;;;30.83;;
63276;SDS011;49403;51.046;13.780;2024-03-02T00:38:04;53.95;;;30.67;;
63276;SDS011;49403;51.046;13.780;2024-03-02T00:38:47;47.65;;;30.15;;
63276;SDS011;49403;51.046;13.780;2024-03-02T00:39:22;52.13;;;29.83;;
63276;SDS011;49403;51.046;13.780;2024-03-02T00:39:53;48.20;;;30.27;;
63276;SDS011;49403;51.046;13.780;2024-03-02T00:40:26;50.28;;;30.35;;
63276;SDS011;49403;51.046;13.780;2024-03-02T00:41:05;48.63;;;30.33;;
63276;SDS011;49403;51.046;13.780;2024-03-02T00:41:40;56.63;;;30.45;;
63276;SDS011;49403;51.046;13.780;2024-03-02T00:42:14;50.28;;;31.10;;
63276;SDS011;49403;51.046;13.780;2024-03-02T00:42:45;47.25;;;28.92;;
63276;SDS011;49403;51.046;13.780;2024-03-02T00:44:09;47.05;;;29.02;;
63276;SDS011;49403;51.046;13.780;2024-03-02T00:44:45;47.20;;;30.00;;
63276;SDS011;49403;51.046;13.780;2024-03-02T00:45:17;48.38;;;30.33;;
63276;SDS011;49403;51.046;13.780;2024-03-02T00:45:48;48.03;;;29.88;;
63276;SDS011;49403;51.046;13.780;2024-03-02T00:46:19;47.72;;;30.35;;
63276;SDS011;49403;51.046;13.780;2024-03-02T00:46:50;50.45;;;29.33;;
63276;SDS011;49403;51.046;13.780;2024-03-02T00:47:21;48.08;;;30.13;;
63276;SDS011;49403;51.046;13.780;2024-03-02T00:47:52;49.78;;;29.33;;
63276;SDS011;49403;51.046;13.780;2024-03-02T00:48:23;47.00;;;28.75;;
63276;SDS011;49403;51.046;13.780;2024-03-02T00:48:55;44.90;;;29.95;;
63276;SDS011;49403;51.046;13.780;2024-03-02T00:49:27;50.67;;;30.23;;
63276;SDS011;49403;51.046;13.780;2024-03-02T00:49:58;48.33;;;30.55;;
63276;SDS011;49403;51.046;13.780;2024-03-02T00:50:29;48.35;;;30.92;;
63276;SDS011;49403;51.046;13.780;2024-03-02T00:51:00;49.45;;;30.23;;
63276;SDS011;49403;51.046;13.780;2024-03-02T00:51:32;46.30;;;29.05;;
63276;SDS011;49403;51.046;13.780;2024-03-02T00:52:04;45.97;;;29.75;;
63276;SDS011;49403;51.046;13.780;2024-03-02T00:52:37;46.63;;;28.98;;
63276;SDS011;49403;51.046;13.780;2024-03-02T00:53:10;51.83;;;30.17;;
63276;SDS011;49403;51.046;13.780;2024-03-02T00:53:42;48.72;;;29.75;;
63276;SDS011;49403;51.046;13.780;2024-03-02T00:54:13;49.90;;;29.27;;
63276;SDS011;49403;51.046;13.780;2024-03-02T00:54:44;45.33;;;28.50;;
63276;SDS011;49403;51.046;13.780;2024-03-02T00:55:15;44.95;;;28.70;;
63276;SDS011;49403;51.046;13.780;2024-03-02T00:55:46;45.85;;;28.85;;
63276;SDS011;49403;51.046;13.780;2024-03-02T00:56:18;44.30;;;28.95;;
63276;SDS011;49403;51.046;13.780;2024-03-02T00:56:49;46.00;;;29.35;;
63276;SDS011;49403;51.046;13.780;2024-03-02T00:57:20;47.33;;;29.13;;
63276;SDS011;49403;51.046;13.780;2024-03-02T00:57:53;46.38;;;29.05;;
63276;SDS011;49403;51.046;13.780;2024-03-02T00:58:23;46.78;;;28.85;;
63276;SDS011;49403;51.046;13.780;2024-03-02T00:58:54;49.78;;;30.52;;
63276;SDS011;49403;51.046;13.780;2024-03-02T00:59:25;48.92;;;30.25;;
63276;SDS011;49403;51.046;13.780;2024-03-02T00:59:56;49.92;;;30.55;;
63276;SDS011;49403;51.046;13.780;2024-03-02T01:00:27;48.78;;;30.08;;
63276;SDS011;49403;51.046;13.780;2024-03-02T01:00:58;45.88;;;29.95;;
63276;SDS011;49403;51.046;13.780;2024-03-02T01:01:28;46.08;;;29.85;;
63276;SDS011;49403;51.046;13.780;2024-03-02T01:01:59;42.38;;;28.88;;
63276;SDS011;49403;51.046;13.780;2024-03-02T01:02:30;43.38;;;28.55;;
63276;SDS011;49403;51.046;13.780;2024-03-02T01:03:00;45.42;;;29.25;;
63276;SDS011;49403;51.046;13.780;2024-03-02T01:03:31;46.63;;;28.98;;
63276;SDS011;49403;51.046;13.780;2024-03-02T01:04:02;46.42;;;30.73;;
63276;SDS011;49403;51.046;13.780;2024-03-02T01:04:33;47.17;;;29.90;;
63276;SDS011;49403;51.046;13.780;2024-03-02T01:05:04;46.28;;;29.60;;
63276;SDS011;49403;51.046;13.780;2024-03-02T01:05:35;43.40;;;29.02;;
63276;SDS011;49403;51.046;13.780;2024-03-02T01:06:06;48.08;;;29.40;;
63276;SDS011;49403;51.046;13.780;2024-03-02T01:06:37;46.97;;;29.20;;
63276;SDS011;49403;51.046;13.780;2024-03-02T01:07:08;45.35;;;29.88;;
63276;SDS011;49403;51.046;13.780;2024-03-02T01:07:39;45.50;;;29.88;;
63276;SDS011;49403;51.046;13.780;2024-03-02T01:08:10;46.53;;;29.13;;
63276;SDS011;49403;51.046;13.780;2024-03-02T01:08:41;48.03;;;29.73;;
63276;SDS011;49403;51.046;13.780;2024-03-02T01:09:12;47.70;;;30.15;;
63276;SDS011;49403;51.046;13.780;2024-03-02T01:09:43;45.63;;;29.23;;
63276;SDS011;49403;51.046;13.780;2024-03-02T01:10:15;43.72;;;28.58;;
63276;SDS011;49403;51.046;13.780;2024-03-02T01:10:45;45.20;;;29.08;;
63276;SDS011;49403;51.046;13.780;2024-03-02T01:11:16;45.22;;;29.40;;
63276;SDS011;49403;51.046;13.780;2024-03-02T01:11:48;50.95;;;29.38;;
63276;SDS011;49403;51.046;13.780;2024-03-02T01:12:19;45.70;;;30.45;;
63276;SDS011;49403;51.046;13.780;2024-03-02T01:12:49;50.72;;;30.38;;
63276;SDS011;49403;51.046;13.780;2024-03-02T01:13:23;43.95;;;29.83;;
63276;SDS011;49403;51.046;13.780;2024-03-02T01:13:54;49.22;;;31.13;;
63276;SDS011;49403;51.046;13.780;2024-03-02T01:14:25;46.08;;;29.25;;
63276;SDS011;49403;51.046;13.780;2024-03-02T01:14:56;50.17;;;30.35;;
63276;SDS011;49403;51.046;13.780;2024-03-02T01:15:27;44.67;;;29.70;;
63276;SDS011;49403;51.046;13.780;2024-03-02T01:15:57;46.72;;;29.95;;
63276;SDS011;49403;51.046;13.780;2024-03-02T01:16:28;47.47;;;31.08;;
63276;SDS011;49403;51.046;13.780;2024-03-02T01:16:59;43.22;;;30.10;;
63276;SDS011;49403;51.046;13.780;2024-03-02T01:17:33;46.17;;;29.02;;
63276;SDS011;49403;51.046;13.780;2024-03-02T01:18:04;43.50;;;29.92;;
63276;SDS011;49403;51.046;13.780;2024-03-02T01:18:34;49.35;;;30.02;;
63276;SDS011;49403;51.046;13.780;2024-03-02T01:19:05;45.33;;;29.33;;
63276;SDS011;49403;51.046;13.780;2024-03-02T01:19:36;48.50;;;29.90;;
63276;SDS011;49403;51.046;13.780;2024-03-02T01:20:08;46.20;;;29.63;;
63276;SDS011;49403;51.046;13.780;2024-03-02T01:20:39;45.45;;;29.60;;
63276;SDS011;49403;51.046;13.780;2024-03-02T01:21:10;48.15;;;31.23;;
63276;SDS011;49403;51.046;13.780;2024-03-02T01:21:41;43.67;;;28.75;;
63276;SDS011;49403;51.046;13.780;2024-03-02T01:22:11;46.03;;;30.77;;
63276;SDS011;49403;51.046;13.780;2024-03-02T01:22:42;50.38;;;30.77;;
63276;SDS011;49403;51.046;13.780;2024-03-02T01:23:13;47.10;;;29.80;;
63276;SDS011;49403;51.046;13.780;2024-03-02T01:23:44;45.90;;;29.75;;
63276;SDS011;49403;51.046;13.780;2024-03-02T01:24:15;48.53;;;30.60;;
63276;SDS011;49403;51.046;13.780;2024-03-02T01:24:46;50.63;;;30.38;;
63276;SDS011;49403;51.046;13.780;2024-03-02T01:25:17;48.97;;;30.23;;
63276;SDS011;49403;51.046;13.780;2024-03-02T01:25:48;49.28;;;30.65;;
63276;SDS011;49403;51.046;13.780;2024-03-02T01:26:18;48.35;;;30.65;;
63276;SDS011;49403;51.046;13.780;2024-03-02T01:26:49;47.92;;;30.17;;
63276;SDS011;49403;51.046;13.780;2024-03-02T01:27:20;46.30;;;29.83;;
63276;SDS011;49403;51.046;13.780;2024-03-02T01:27:51;46.35;;;28.98;;
63276;SDS011;49403;51.046;13.780;2024-03-02T01:28:22;44.55;;;29.30;;
63276;SDS011;49403;51.046;13.780;2024-03-02T01:28:53;42.85;;;28.23;;
63276;SDS011;49403;51.046;13.780;2024-03-02T01:29:23;49.80;;;29.75;;
63276;SDS011;49403;51.046;13.780;2024-03-02T01:29:54;48.38;;;29.45;;
63276;SDS011;49403;51.046;13.780;2024-03-02T01:30:25;48.17;;;29.45;;
63276;SDS011;49403;51.046;13.780;2024-03-02T01:30:56;43.30;;;28.48;;
63276;SDS011;49403;51.046;13.780;2024-03-02T01:31:26;43.60;;;27.73;;
63276;SDS011;49403;51.046;13.780;2024-03-02T01:31:57;47.67;;;29.25;;
63276;SDS011;49403;51.046;13.780;2024-03-02T01:32:28;42.95;;;28.65;;
63276;SDS011;49403;51.046;13.780;2024-03-02T01:32:59;46.08;;;28.92;;
63276;SDS011;49403;51.046;13.780;2024-03-02T01:33:30;44.40;;;29.25;;
63276;SDS011;49403;51.046;13.780;2024-03-02T01:34:01;44.67;;;28.27;;
63276;SDS011;49403;51.046;13.780;2024-03-02T01:34:32;45.30;;;28.90;;
63276;SDS011;49403;51.046;13.780;2024-03-02T01:35:02;49.50;;;29.35;;
63276;SDS011;49403;51.046;13.780;2024-03-02T01:35:33;43.15;;;28.00;;
63276;SDS011;49403;51.046;13.780;2024-03-02T01:36:05;44.30;;;28.65;;
63276;SDS011;49403;51.046;13.780;2024-03-02T01:36:35;46.25;;;29.63;;
63276;SDS011;49403;51.046;13.780;2024-03-02T01:37:06;46.53;;;29.15;;
63276;SDS011;49403;51.046;13.780;2024-03-02T01:37:37;42.35;;;28.83;;
63276;SDS011;49403;51.046;13.780;2024-03-02T01:38:08;42.63;;;28.83;;
63276;SDS011;49403;51.046;13.780;2024-03-02T01:38:38;44.95;;;28.85;;
63276;SDS011;49403;51.046;13.780;2024-03-02T01:39:09;43.80;;;28.83;;
63276;SDS011;49403;51.046;13.780;2024-03-02T01:39:40;47.50;;;29.20;;
63276;SDS011;49403;51.046;13.780;2024-03-02T01:40:11;48.30;;;30.20;;
63276;SDS011;49403;51.046;13.780;2024-03-02T01:40:42;42.97;;;28.52;;
63276;SDS011;49403;51.046;13.780;2024-03-02T01:41:14;43.67;;;28.58;;
63276;SDS011;49403;51.046;13.780;2024-03-02T01:41:45;45.75;;;28.40;;
63276;SDS011;49403;51.046;13.780;2024-03-02T01:42:16;47.60;;;29.23;;
63276;SDS011;49403;51.046;13.780;2024-03-02T01:42:47;43.70;;;28.40;;
63276;SDS011;49403;51.046;13.780;2024-03-02T01:43:17;46.97;;;29.15;;
63276;SDS011;49403;51.046;13.780;2024-03-02T01:43:48;45.13;;;28.92;;
63276;SDS011;49403;51.046;13.780;2024-03-02T01:44:19;44.50;;;28.88;;
63276;SDS011;49403;51.046;13.780;2024-03-02T01:44:50;43.90;;;28.70;;
63276;SDS011;49403;51.046;13.780;2024-03-02T01:45:21;47.22;;;29.17;;
63276;SDS011;49403;51.046;13.780;2024-03-02T01:45:52;45.20;;;29.52;;
63276;SDS011;49403;51.046;13.780;2024-03-02T01:46:23;44.25;;;27.95;;
63276;SDS011;49403;51.046;13.780;2024-03-02T01:46:54;43.80;;;28.60;;
63276;SDS011;49403;51.046;13.780;2024-03-02T01:47:25;47.40;;;29.15;;
63276;SDS011;49403;51.046;13.780;2024-03-02T01:47:56;46.88;;;29.05;;
63276;SDS011;49403;51.046;13.780;2024-03-02T01:48:27;46.60;;;28.67;;
63276;SDS011;49403;51.046;13.780;2024-03-02T01:48:57;43.58;;;28.70;;
63276;SDS011;49403;51.046;13.780;2024-03-02T01:49:28;44.25;;;28.67;;
63276;SDS011;49403;51.046;13.780;2024-03-02T01:49:59;46.25;;;29.27;;
63276;SDS011;49403;51.046;13.780;2024-03-02T01:50:33;44.67;;;29.77;;
63276;SDS011;49403;51.046;13.780;2024-03-02T01:51:04;45.35;;;28.77;;
63276;SDS011;49403;51.046;13.780;2024-03-02T01:51:36;43.75;;;28.63;;
63276;SDS011;49403;51.046;13.780;2024-03-02T01:52:07;42.08;;;28.85;;
63276;SDS011;49403;51.046;13.780;2024-03-02T01:52:38;46.72;;;28.90;;
63276;SDS011;49403;51.046;13.780;2024-03-02T01:53:09;46.60;;;29.75;;
63276;SDS011;49403;51.046;13.780;2024-03-02T01:53:40;45.67;;;29.50;;
63276;SDS011;49403;51.046;13.780;2024-03-02T01:54:11;47.40;;;29.33;;
63276;SDS011;49403;51.046;13.780;2024-03-02T01:54:41;46.60;;;28.85;;
63276;SDS011;49403;51.046;13.780;2024-03-02T01:55:12;45.13;;;29.05;;
63276;SDS011;49403;51.046;13.780;2024-03-02T01:55:43;46.70;;;29.25;;
63276;SDS011;49403;51.046;13.780;2024-03-02T01:56:14;49.55;;;30.08;;
63276;SDS011;49403;51.046;13.780;2024-03-02T01:56:45;46.22;;;29.70;;
63276;SDS011;49403;51.046;13.780;2024-03-02T01:57:16;49.63;;;30.20;;
63276;SDS011;49403;51.046;13.780;2024-03-02T01:57:48;49.63;;;29.33;;
63276;SDS011;49403;51.046;13.780;2024-03-02T01:58:20;50.15;;;29.80;;
63276;SDS011;49403;51.046;13.780;2024-03-02T01:58:51;49.35;;;28.95;;
63276;SDS011;49403;51.046;13.780;2024-03-02T01:59:22;51.70;;;31.05;;
63276;SDS011;49403;51.046;13.780;2024-03-02T01:59:53;50.25;;;29.80;;
63276;SDS011;49403;51.046;13.780;2024-03-02T02:00:24;47.45;;;30.00;;
63276;SDS011;49403;51.046;13.780;2024-03-02T02:00:56;48.22;;;30.67;;
63276;SDS011;49403;51.046;13.780;2024-03-02T02:01:27;48.47;;;30.27;;
63276;SDS011;49403;51.046;13.780;2024-03-02T02:01:57;48.42;;;29.73;;
63276;SDS011;49403;51.046;13.780;2024-03-02T02:02:28;49.40;;;29.42;;
63276;SDS011;49403;51.046;13.780;2024-03-02T02:02:59;51.88;;;31.17;;
63276;SDS011;49403;51.046;13.780;2024-03-02T02:03:30;45.50;;;28.85;;
63276;SDS011;49403;51.046;13.780;2024-03-02T02:04:00;48.47;;;30.45;;
63276;SDS011;49403;51.046;13.780;2024-03-02T02:04:31;48.08;;;29.88;;
63276;SDS011;49403;51.046;13.780;2024-03-02T02:05:02;49.85;;;29.27;;
63276;SDS011;49403;51.046;13.780;2024-03-02T02:05:34;47.30;;;28.80;;
63276;SDS011;49403;51.046;13.780;2024-03-02T02:06:05;48.28;;;29.95;;
63276;SDS011;49403;51.046;13.780;2024-03-02T02:06:37;49.55;;;30.17;;
63276;SDS011;49403;51.046;13.780;2024-03-02T02:07:09;52.30;;;29.98;;
63276;SDS011;49403;51.046;13.780;2024-03-02T02:07:40;47.92;;;30.05;;
63276;SDS011;49403;51.046;13.780;2024-03-02T02:08:12;51.10;;;31.00;;
63276;SDS011;49403;51.046;13.780;2024-03-02T02:08:43;49.13;;;29.17;;
63276;SDS011;49403;51.046;13.780;2024-03-02T02:09:15;48.40;;;30.27;;
63276;SDS011;49403;51.046;13.780;2024-03-02T02:09:48;50.63;;;29.55;;
63276;SDS011;49403;51.046;13.780;2024-03-02T02:10:19;50.80;;;31.50;;
63276;SDS011;49403;51.046;13.780;2024-03-02T02:10:49;47.28;;;30.10;;
63276;SDS011;49403;51.046;13.780;2024-03-02T02:11:20;48.40;;;30.30;;
63276;SDS011;49403;51.046;13.780;2024-03-02T02:11:51;52.95;;;30.95;;
63276;SDS011;49403;51.046;13.780;2024-03-02T02:12:22;49.40;;;30.17;;
63276;SDS011;49403;51.046;13.780;2024-03-02T02:12:53;49.08;;;30.08;;
63276;SDS011;49403;51.046;13.780;2024-03-02T02:13:23;48.80;;;30.27;;
63276;SDS011;49403;51.046;13.780;2024-03-02T02:13:54;50.00;;;30.27;;
63276;SDS011;49403;51.046;13.780;2024-03-02T02:14:28;51.03;;;30.52;;
63276;SDS011;49403;51.046;13.780;2024-03-02T02:14:58;49.17;;;30.05;;
63276;SDS011;49403;51.046;13.780;2024-03-02T02:15:29;52.45;;;30.20;;
63276;SDS011;49403;51.046;13.780;2024-03-02T02:16:04;50.17;;;30.35;;
63276;SDS011;49403;51.046;13.780;2024-03-02T02:16:36;48.17;;;30.33;;
63276;SDS011;49403;51.046;13.780;2024-03-02T02:17:06;50.22;;;30.52;;
63276;SDS011;49403;51.046;13.780;2024-03-02T02:17:37;48.10;;;29.80;;
63276;SDS011;49403;51.046;13.780;2024-03-02T02:18:08;52.17;;;30.60;;
63276;SDS011;49403;51.046;13.780;2024-03-02T02:18:39;52.70;;;31.02;;
63276;SDS011;49403;51.046;13.780;2024-03-02T02:19:09;52.72;;;31.17;;
63276;SDS011;49403;51.046;13.780;2024-03-02T02:19:41;53.97;;;31.75;;
63276;SDS011;49403;51.046;13.780;2024-03-02T02:20:11;51.25;;;30.95;;
63276;SDS011;49403;51.046;13.780;2024-03-02T02:20:42;49.65;;;30.98;;
63276;SDS011;49403;51.046;13.780;2024-03-02T02:21:13;52.92;;;31.42;;
63276;SDS011;49403;51.046;13.780;2024-03-02T02:21:44;50.20;;;31.05;;
63276;SDS011;49403;51.046;13.780;2024-03-02T02:22:15;51.05;;;30.50;;
63276;SDS011;49403;51.046;13.780;2024-03-02T02:22:55;50.22;;;30.95;;
63276;SDS011;49403;51.046;13.780;2024-03-02T02:23:26;53.95;;;31.92;;
63276;SDS011;49403;51.046;13.780;2024-03-02T02:23:56;53.78;;;31.05;;
63276;SDS011;49403;51.046;13.780;2024-03-02T02:24:27;50.40;;;29.92;;
63276;SDS011;49403;51.046;13.780;2024-03-02T02:24:58;50.08;;;30.35;;
63276;SDS011;49403;51.046;13.780;2024-03-02T02:25:29;49.95;;;31.00;;
63276;SDS011;49403;51.046;13.780;2024-03-02T02:26:00;52.70;;;31.27;;
63276;SDS011;49403;51.046;13.780;2024-03-02T02:26:31;52.53;;;29.83;;
63276;SDS011;49403;51.046;13.780;2024-03-02T02:27:02;50.15;;;30.70;;
63276;SDS011;49403;51.046;13.780;2024-03-02T02:27:33;57.17;;;32.03;;
63276;SDS011;49403;51.046;13.780;2024-03-02T02:28:04;51.42;;;31.50;;
63276;SDS011;49403;51.046;13.780;2024-03-02T02:28:35;52.70;;;30.80;;
63276;SDS011;49403;51.046;13.780;2024-03-02T02:29:05;53.08;;;32.45;;
63276;SDS011;49403;51.046;13.780;2024-03-02T02:29:36;51.50;;;30.95;;
63276;SDS011;49403;51.046;13.780;2024-03-02T02:30:07;52.95;;;31.25;;
63276;SDS011;49403;51.046;13.780;2024-03-02T02:30:39;56.97;;;32.10;;
63276;SDS011;49403;51.046;13.780;2024-03-02T02:31:09;56.78;;;32.10;;
63276;SDS011;49403;51.046;13.780;2024-03-02T02:31:40;55.97;;;31.15;;
63276;SDS011;49403;51.046;13.780;2024-03-02T02:32:12;52.72;;;31.20;;
63276;SDS011;49403;51.046;13.780;2024-03-02T02:32:42;51.15;;;30.30;;
63276;SDS011;49403;51.046;13.780;2024-03-02T02:33:13;54.10;;;31.23;;
63276;SDS011;49403;51.046;13.780;2024-03-02T02:33:44;55.30;;;32.25;;
63276;SDS011;49403;51.046;13.780;2024-03-02T02:34:15;51.70;;;31.50;;
63276;SDS011;49403;51.046;13.780;2024-03-02T02:34:46;59.30;;;31.27;;
63276;SDS011;49403;51.046;13.780;2024-03-02T02:35:16;52.30;;;31.90;;
63276;SDS011;49403;51.046;13.780;2024-03-02T02:35:47;56.92;;;32.08;;
63276;SDS011;49403;51.046;13.780;2024-03-02T02:36:18;57.88;;;32.85;;
63276;SDS011;49403;51.046;13.780;2024-03-02T02:36:49;59.25;;;32.78;;
63276;SDS011;49403;51.046;13.780;2024-03-02T02:37:20;56.10;;;32.90;;
63276;SDS011;49403;51.046;13.780;2024-03-02T02:37:51;54.45;;;32.60;;
63276;SDS011;49403;51.046;13.780;2024-03-02T02:38:23;54.80;;;32.25;;
63276;SDS011;49403;51.046;13.780;2024-03-02T02:38:54;55.95;;;31.98;;
63276;SDS011;49403;51.046;13.780;2024-03-02T02:39:25;55.85;;;31.60;;
63276;SDS011;49403;51.046;13.780;2024-03-02T02:39:57;59.95;;;32.17;;
63276;SDS011;49403;51.046;13.780;2024-03-02T02:40:27;55.83;;;32.40;;
63276;SDS011;49403;51.046;13.780;2024-03-02T02:41:00;63.53;;;33.60;;
63276;SDS011;49403;51.046;13.780;2024-03-02T02:41:31;60.97;;;32.90;;
63276;SDS011;49403;51.046;13.780;2024-03-02T02:42:02;56.22;;;31.70;;
63276;SDS011;49403;51.046;13.780;2024-03-02T02:42:33;55.45;;;32.42;;
63276;SDS011;49403;51.046;13.780;2024-03-02T02:43:03;55.45;;;31.77;;
63276;SDS011;49403;51.046;13.780;2024-03-02T02:43:34;59.08;;;32.60;;
63276;SDS011;49403;51.046;13.780;2024-03-02T02:44:05;56.92;;;31.58;;
63276;SDS011;49403;51.046;13.780;2024-03-02T02:44:36;57.28;;;31.77;;
63276;SDS011;49403;51.046;13.780;2024-03-02T02:45:06;60.80;;;32.95;;
63276;SDS011;49403;51.046;13.780;2024-03-02T02:45:38;63.28;;;32.35;;
63276;SDS011;49403;51.046;13.780;2024-03-02T02:46:08;57.63;;;32.13;;
63276;SDS011;49403;51.046;13.780;2024-03-02T02:46:39;61.53;;;32.40;;
63276;SDS011;49403;51.046;13.780;2024-03-02T02:47:10;58.42;;;32.40;;
63276;SDS011;49403;51.046;13.780;2024-03-02T02:47:41;58.92;;;33.38;;
63276;SDS011;49403;51.046;13.780;2024-03-02T02:48:13;59.95;;;32.80;;
63276;SDS011;49403;51.046;13.780;2024-03-02T02:48:43;60.88;;;32.83;;
63276;SDS011;49403;51.046;13.780;2024-03-02T02:49:14;62.10;;;34.28;;
63276;SDS011;49403;51.046;13.780;2024-03-02T02:49:45;56.67;;;33.03;;
63276;SDS011;49403;51.046;13.780;2024-03-02T02:50:16;57.38;;;32.00;;
63276;SDS011;49403;51.046;13.780;2024-03-02T02:50:47;56.45;;;32.38;;
63276;SDS011;49403;51.046;13.780;2024-03-02T02:51:18;57.17;;;32.72;;
63276;SDS011;49403;51.046;13.780;2024-03-02T02:51:48;59.40;;;32.60;;
63276;SDS011;49403;51.046;13.780;2024-03-02T02:52:19;56.20;;;31.33;;
63276;SDS011;49403;51.046;13.780;2024-03-02T02:52:51;57.55;;;32.35;;
63276;SDS011;49403;51.046;13.780;2024-03-02T02:53:22;59.08;;;32.70;;
63276;SDS011;49403;51.046;13.780;2024-03-02T02:53:52;58.55;;;32.83;;
63276;SDS011;49403;51.046;13.780;2024-03-02T02:54:23;61.33;;;33.30;;
63276;SDS011;49403;51.046;13.780;2024-03-02T02:54:54;60.85;;;33.35;;
63276;SDS011;49403;51.046;13.780;2024-03-02T02:55:25;57.42;;;32.38;;
63276;SDS011;49403;51.046;13.780;2024-03-02T02:55:55;67.80;;;34.63;;
63276;SDS011;49403;51.046;13.780;2024-03-02T02:56:26;65.63;;;33.50;;
63276;SDS011;49403;51.046;13.780;2024-03-02T02:56:57;58.83;;;33.58;;
63276;SDS011;49403;51.046;13.780;2024-03-02T02:57:29;58.70;;;32.25;;
63276;SDS011;49403;51.046;13.780;2024-03-02T02:58:05;58.55;;;33.13;;
63276;SDS011;49403;51.046;13.780;2024-03-02T02:58:41;59.65;;;32.45;;
63276;SDS011;49403;51.046;13.780;2024-03-02T02:59:12;60.63;;;33.50;;
63276;SDS011;49403;51.046;13.780;2024-03-02T02:59:42;57.33;;;33.05;;
63276;SDS011;49403;51.046;13.780;2024-03-02T03:00:14;59.17;;;32.33;;
63276;SDS011;49403;51.046;13.780;2024-03-02T03:00:46;61.47;;;32.70;;
63276;SDS011;49403;51.046;13.780;2024-03-02T03:01:17;61.33;;;33.28;;
63276;SDS011;49403;51.046;13.780;2024-03-02T03:01:51;62.13;;;33.15;;
63276;SDS011;49403;51.046;13.780;2024-03-02T03:02:22;55.92;;;32.53;;
63276;SDS011;49403;51.046;13.780;2024-03-02T03:02:53;57.40;;;33.20;;
63276;SDS011;49403;51.046;13.780;2024-03-02T03:03:23;59.15;;;32.38;;
63276;SDS011;49403;51.046;13.780;2024-03-02T03:03:54;61.53;;;33.50;;
63276;SDS011;49403;51.046;13.780;2024-03-02T03:04:25;57.90;;;32.20;;
63276;SDS011;49403;51.046;13.780;2024-03-02T03:04:56;59.30;;;32.30;;
63276;SDS011;49403;51.046;13.780;2024-03-02T03:05:27;58.13;;;33.15;;
63276;SDS011;49403;51.046;13.780;2024-03-02T03:05:58;62.35;;;33.65;;